TimeCDT,TemperatureF,Dew PointF,Humidity,Sea Level PressureIn,VisibilityMPH,Wind Direction,Wind SpeedMPH,Gust SpeedMPH,PrecipitationIn,Events,Conditions,WindDirDegrees,DateUTC
12:15 AM,66.2,57.2,73,30.06,10.0,Calm,Calm,-,N/A,,Clear,0,2013-07-11 05:15:00
12:35 AM,66.2,57.2,73,30.07,10.0,Calm,Calm,-,N/A,,Clear,0,2013-07-11 05:35:00
12:55 AM,66.2,57.2,73,30.07,10.0,Calm,Calm,-,N/A,,Clear,0,2013-07-11 05:55:00
1:15 AM,64.4,57.2,77,30.07,10.0,WNW,4.6,-,N/A,,Clear,300,2013-07-11 06:15:00
1:35 AM,62.6,57.2,82,30.08,10.0,WNW,5.8,-,N/A,,Clear,290,2013-07-11 06:35:00
1:55 AM,62.6,59.0,88,30.08,10.0,WNW,4.6,-,N/A,,Clear,300,2013-07-11 06:55:00
2:15 AM,62.6,59.0,88,30.08,10.0,WNW,5.8,-,N/A,,Clear,300,2013-07-11 07:15:00
2:35 AM,64.4,60.8,88,30.08,10.0,NNW,4.6,-,N/A,,Clear,330,2013-07-11 07:35:00
2:55 AM,64.4,60.8,88,30.08,10.0,NNW,3.5,-,N/A,,Clear,340,2013-07-11 07:55:00
3:15 AM,62.6,59.0,88,30.08,10.0,NW,4.6,-,N/A,,Clear,320,2013-07-11 08:15:00
3:35 AM,62.6,59.0,88,30.09,10.0,Calm,Calm,-,N/A,,Clear,0,2013-07-11 08:35:00
3:55 AM,64.4,60.8,88,30.08,9.0,North,3.5,-,N/A,,Clear,360,2013-07-11 08:55:00
4:15 AM,64.4,60.8,88,30.09,10.0,Calm,Calm,-,N/A,,Clear,0,2013-07-11 09:15:00
4:35 AM,60.8,59.0,94,30.08,10.0,Calm,Calm,-,N/A,,Clear,0,2013-07-11 09:35:00
4:55 AM,62.6,59.0,88,30.09,10.0,Calm,Calm,-,N/A,,Clear,0,2013-07-11 09:55:00
5:15 AM,64.4,60.8,88,30.09,10.0,Calm,Calm,-,N/A,,Clear,0,2013-07-11 10:15:00
5:35 AM,64.4,59.0,83,30.09,10.0,NE,4.6,-,N/A,,Clear,50,2013-07-11 10:35:00
5:55 AM,64.4,59.0,83,30.10,10.0,ENE,4.6,-,N/A,,Clear,60,2013-07-11 10:55:00
6:15 AM,66.2,59.0,78,30.11,10.0,Calm,Calm,-,N/A,,Clear,0,2013-07-11 11:15:00
6:35 AM,66.2,57.2,73,30.11,9.0,ENE,4.6,-,N/A,,Clear,70,2013-07-11 11:35:00
6:55 AM,66.2,57.2,73,30.11,9.0,East,4.6,-,N/A,,Clear,80,2013-07-11 11:55:00
7:15 AM,66.2,57.2,73,30.12,9.0,East,3.5,-,N/A,,Clear,80,2013-07-11 12:15:00
7:35 AM,68.0,57.2,68,30.13,9.0,East,4.6,-,N/A,,Clear,100,2013-07-11 12:35:00
7:55 AM,69.8,59.0,68,30.13,9.0,East,3.5,-,N/A,,Clear,90,2013-07-11 12:55:00
8:15 AM,69.8,59.0,68,30.13,9.0,East,4.6,-,N/A,,Clear,100,2013-07-11 13:15:00
8:35 AM,69.8,59.0,68,30.12,10.0,ESE,4.6,-,N/A,,Clear,110,2013-07-11 13:35:00
8:55 AM,71.6,59.0,64,30.13,10.0,SE,4.6,-,N/A,,Clear,140,2013-07-11 13:55:00
9:15 AM,71.6,59.0,64,30.13,10.0,SSE,4.6,-,N/A,,Clear,150,2013-07-11 14:15:00
9:35 AM,73.4,57.2,57,30.13,10.0,SE,4.6,-,N/A,,Clear,130,2013-07-11 14:35:00
9:55 AM,75.2,57.2,53,30.12,10.0,East,5.8,-,N/A,,Clear,100,2013-07-11 14:55:00
10:15 AM,75.2,57.2,53,30.12,10.0,SE,5.8,-,N/A,,Clear,130,2013-07-11 15:15:00
10:35 AM,77.0,55.4,47,30.12,10.0,ESE,6.9,-,N/A,,Clear,120,2013-07-11 15:35:00
10:55 AM,77.0,55.4,47,30.12,10.0,ENE,6.9,-,N/A,,Clear,70,2013-07-11 15:55:00
11:15 AM,77.0,55.4,47,30.13,10.0,Variable,6.9,13.8,N/A,,Clear,0,2013-07-11 16:15:00
11:35 AM,77.0,55.4,47,30.12,10.0,NE,4.6,12.7,N/A,,Clear,50,2013-07-11 16:35:00
11:55 AM,78.8,57.2,47,30.12,10.0,East,8.1,-,N/A,,Clear,100,2013-07-11 16:55:00
12:15 PM,78.8,57.2,47,30.12,10.0,Variable,6.9,-,N/A,,Clear,0,2013-07-11 17:15:00
12:35 PM,78.8,57.2,47,30.12,10.0,SE,6.9,-,N/A,,Clear,130,2013-07-11 17:35:00
12:55 PM,78.8,57.2,47,30.12,10.0,Variable,3.5,12.7,N/A,,Clear,0,2013-07-11 17:55:00
1:15 PM,78.8,57.2,47,30.11,10.0,ESE,9.2,-,N/A,,Clear,120,2013-07-11 18:15:00
1:35 PM,78.8,57.2,47,30.11,10.0,ESE,5.8,-,N/A,,Clear,110,2013-07-11 18:35:00
1:55 PM,80.6,57.2,45,30.10,10.0,SE,8.1,-,N/A,,Clear,140,2013-07-11 18:55:00
2:15 PM,80.6,55.4,42,30.10,10.0,SE,8.1,-,N/A,,Clear,130,2013-07-11 19:15:00
2:35 PM,80.6,55.4,42,30.10,10.0,East,11.5,-,N/A,,Clear,100,2013-07-11 19:35:00
2:55 PM,80.6,55.4,42,30.09,10.0,SE,10.4,-,N/A,,Clear,130,2013-07-11 19:55:00
3:15 PM,80.6,55.4,42,30.09,10.0,Variable,5.8,12.7,N/A,,Clear,0,2013-07-11 20:15:00
3:35 PM,80.6,55.4,42,30.09,10.0,ESE,6.9,-,N/A,,Clear,120,2013-07-11 20:35:00
3:55 PM,82.4,55.4,39,30.08,10.0,ESE,8.1,-,N/A,,Clear,120,2013-07-11 20:55:00
4:15 PM,82.4,55.4,39,30.08,10.0,East,5.8,-,N/A,,Clear,100,2013-07-11 21:15:00
4:35 PM,82.4,55.4,39,30.08,10.0,Variable,6.9,-,N/A,,Clear,0,2013-07-11 21:35:00
4:55 PM,82.4,57.2,42,30.07,10.0,SE,6.9,13.8,N/A,,Clear,140,2013-07-11 21:55:00
5:15 PM,82.4,57.2,42,30.07,10.0,SE,10.4,-,N/A,,Clear,130,2013-07-11 22:15:00
5:35 PM,82.4,57.2,42,30.06,10.0,ESE,8.1,-,N/A,,Clear,120,2013-07-11 22:35:00
5:55 PM,82.4,57.2,42,30.06,10.0,SE,9.2,-,N/A,,Clear,130,2013-07-11 22:55:00
6:15 PM,80.6,57.2,45,30.06,10.0,SE,8.1,-,N/A,,Clear,130,2013-07-11 23:15:00
6:35 PM,80.6,57.2,45,30.05,10.0,SE,8.1,-,N/A,,Clear,130,2013-07-11 23:35:00
6:55 PM,80.6,57.2,45,30.06,10.0,ESE,4.6,-,N/A,,Clear,120,2013-07-11 23:55:00
7:15 PM,78.8,57.2,47,30.05,10.0,SE,5.8,-,N/A,,Clear,130,2013-07-12 00:15:00
7:35 PM,78.8,59.0,51,30.05,10.0,SE,4.6,-,N/A,,Clear,140,2013-07-12 00:35:00
7:55 PM,77.0,57.2,50,30.05,9.0,SE,5.8,-,N/A,,Clear,140,2013-07-12 00:55:00
8:15 PM,75.2,59.0,57,30.05,8.0,SSE,5.8,-,N/A,,Clear,150,2013-07-12 01:15:00
8:35 PM,75.2,57.2,53,30.04,9.0,SE,6.9,-,N/A,,Clear,130,2013-07-12 01:35:00
8:55 PM,73.4,57.2,57,30.04,9.0,ESE,5.8,-,N/A,,Clear,120,2013-07-12 01:55:00
9:15 PM,73.4,57.2,57,30.04,10.0,SE,5.8,-,N/A,,Clear,130,2013-07-12 02:15:00
9:35 PM,73.4,57.2,57,30.05,10.0,SE,5.8,-,N/A,,Clear,130,2013-07-12 02:35:00
9:55 PM,71.6,57.2,60,30.05,10.0,SE,5.8,-,N/A,,Clear,130,2013-07-12 02:55:00
10:15 PM,69.8,57.2,64,30.05,10.0,ESE,5.8,-,N/A,,Clear,120,2013-07-12 03:15:00
10:35 PM,69.8,57.2,64,30.05,10.0,SE,6.9,-,N/A,,Clear,130,2013-07-12 03:35:00
10:55 PM,68.0,57.2,68,30.05,-9999.0,SE,5.8,-,N/A,,Clear,130,2013-07-12 03:55:00
11:15 PM,68.0,57.2,68,30.06,10.0,SSE,4.6,-,N/A,,Clear,150,2013-07-12 04:15:00
11:35 PM,68.0,57.2,68,30.07,10.0,SE,5.8,-,N/A,,Clear,130,2013-07-12 04:35:00
11:55 PM,68.0,57.2,68,30.07,10.0,ESE,4.6,-,N/A,,Clear,120,2013-07-12 04:55:00